createdAt,value
2017-05-28T00:00:08.500Z,17.11
2017-05-28T00:02:36.042Z,16.63
2017-05-28T00:05:03.594Z,16.76
2017-05-28T00:07:31.202Z,16.95
2017-05-28T00:09:58.743Z,17.13
2017-05-28T00:12:26.289Z,17.12
2017-05-28T00:14:54.046Z,17.13
2017-05-28T00:17:21.598Z,17.11
2017-05-28T00:19:49.141Z,17.12
2017-05-28T00:22:16.798Z,16.95
2017-05-28T00:24:44.711Z,16.87
2017-05-28T00:27:12.491Z,16.55
2017-05-28T00:29:40.068Z,16.33
2017-05-28T00:32:07.666Z,16.16
2017-05-28T00:34:35.564Z,16.02
2017-05-28T00:37:03.115Z,16.12
2017-05-28T00:39:30.731Z,16.16
2017-05-28T00:41:58.282Z,16.32
2017-05-28T00:44:26.181Z,16.28
2017-05-28T00:46:53.789Z,16.43
2017-05-28T00:49:21.415Z,16.44
2017-05-28T00:51:48.970Z,16.53
2017-05-28T00:54:16.770Z,16.55
2017-05-28T00:56:44.317Z,16.63
2017-05-28T00:59:11.868Z,16.69
2017-05-28T01:01:39.445Z,16.72
2017-05-28T01:04:07.264Z,16.66
2017-05-28T01:06:34.815Z,16.46
2017-05-28T01:09:02.735Z,16.56
2017-05-28T01:11:30.358Z,16.77
2017-05-28T01:13:57.952Z,16.76
2017-05-28T01:16:26.381Z,16.77
2017-05-28T01:18:54.160Z,16.90
2017-05-28T01:21:21.765Z,16.86
2017-05-28T01:23:49.338Z,16.88
2017-05-28T01:26:17.119Z,16.93
2017-05-28T01:28:44.942Z,16.90
2017-05-28T01:31:12.540Z,17.00
2017-05-28T01:33:40.092Z,16.94
2017-05-28T01:36:07.632Z,16.99
2017-05-28T01:38:35.238Z,17.02
2017-05-28T01:41:02.809Z,16.93
2017-05-28T01:43:30.363Z,16.88
2017-05-28T01:45:57.962Z,17.03
2017-05-28T01:48:25.837Z,16.61
2017-05-28T01:50:53.385Z,16.93
2017-05-28T01:53:20.988Z,16.90
2017-05-28T01:55:48.537Z,16.87
2017-05-28T01:58:16.183Z,17.00
2017-05-28T02:00:43.907Z,17.12
2017-05-28T02:03:11.457Z,16.72
2017-05-28T02:05:39.452Z,16.86
2017-05-28T02:08:07.046Z,17.02
2017-05-28T02:10:34.599Z,17.05
2017-05-28T02:13:02.375Z,17.04
2017-05-28T02:15:29.963Z,17.08
2017-05-28T02:17:57.503Z,17.12
2017-05-28T02:20:25.051Z,17.22
2017-05-28T02:22:52.634Z,16.96
2017-05-28T02:25:20.175Z,17.20
2017-05-28T02:27:48.015Z,17.12
2017-05-28T02:30:15.747Z,17.19
2017-05-28T02:32:43.295Z,17.25
2017-05-28T02:35:10.839Z,17.19
2017-05-28T02:37:38.455Z,17.09
2017-05-28T02:40:06.003Z,17.28
2017-05-28T02:42:33.546Z,17.18
2017-05-28T02:45:01.128Z,17.22
2017-05-28T02:47:28.672Z,17.13
2017-05-28T02:49:56.246Z,16.91
2017-05-28T02:52:23.859Z,17.07
2017-05-28T02:54:51.398Z,17.02
2017-05-28T02:57:19.173Z,17.06
2017-05-28T02:59:46.754Z,17.01
2017-05-28T03:02:14.378Z,16.93
2017-05-28T03:04:41.938Z,17.05
2017-05-28T03:07:09.794Z,17.03
2017-05-28T03:09:37.405Z,17.06
2017-05-28T03:12:04.963Z,17.15
2017-05-28T03:14:32.529Z,17.20
2017-05-28T03:17:00.113Z,17.13
2017-05-28T03:19:27.659Z,17.22
2017-05-28T03:21:55.244Z,17.29
2017-05-28T03:24:22.827Z,17.18
2017-05-28T03:26:50.382Z,17.12
2017-05-28T03:29:18.234Z,17.09
2017-05-28T03:31:45.834Z,17.28
2017-05-28T03:37:34.274Z,17.30
2017-05-28T03:40:01.853Z,17.24
2017-05-28T03:42:29.396Z,17.20
2017-05-28T03:44:57.031Z,17.18
2017-05-28T03:47:24.574Z,17.17
2017-05-28T03:49:52.136Z,16.98
2017-05-28T03:52:19.938Z,17.01
2017-05-28T03:54:47.798Z,16.85
2017-05-28T03:57:15.346Z,16.96
2017-05-28T03:59:42.966Z,17.18
2017-05-28T04:02:10.545Z,17.02
2017-05-28T04:04:38.554Z,17.08
2017-05-28T04:07:06.095Z,17.20
2017-05-28T04:09:33.669Z,17.11
2017-05-28T04:12:01.232Z,16.67
2017-05-28T04:14:29.094Z,16.75
2017-05-28T04:16:56.689Z,16.96
2017-05-28T04:19:24.274Z,17.11
2017-05-28T04:21:51.849Z,17.36
2017-05-28T04:24:19.429Z,17.47
2017-05-28T04:26:46.973Z,17.64
2017-05-28T04:29:14.546Z,17.00
2017-05-28T04:31:42.882Z,17.40
2017-05-28T04:34:10.451Z,17.54
2017-05-28T04:36:38.235Z,17.28
2017-05-28T04:39:05.843Z,17.58
2017-05-28T04:41:33.384Z,17.55
2017-05-28T04:44:00.937Z,17.98
2017-05-28T04:46:28.553Z,18.18
2017-05-28T04:48:56.370Z,18.41
2017-05-28T04:51:23.921Z,18.52
2017-05-28T04:53:51.522Z,18.60
2017-05-28T04:56:19.070Z,18.46
2017-05-28T04:58:46.921Z,18.59
2017-05-28T05:01:14.509Z,18.50
2017-05-28T05:03:42.124Z,18.56
2017-05-28T05:06:09.692Z,18.63
2017-05-28T05:08:37.278Z,18.71
2017-05-28T05:11:04.830Z,18.76
2017-05-28T05:13:32.550Z,18.92
2017-05-28T05:16:00.233Z,18.98
2017-05-28T05:18:27.795Z,18.89
2017-05-28T05:20:55.350Z,19.32
2017-05-28T05:23:23.015Z,19.51
2017-05-28T05:25:50.562Z,19.68
2017-05-28T05:28:18.346Z,19.67
2017-05-28T05:30:46.179Z,19.80
2017-05-28T05:33:13.962Z,19.52
2017-05-28T05:35:41.787Z,19.50
2017-05-28T05:38:09.366Z,18.45
2017-05-28T05:40:37.161Z,18.26
2017-05-28T05:43:04.711Z,19.26
2017-05-28T05:45:32.323Z,19.65
2017-05-28T05:48:34.371Z,19.46
2017-05-28T05:51:02.024Z,19.48
2017-05-28T05:53:29.592Z,19.53
2017-05-28T05:55:57.154Z,19.59
2017-05-28T05:58:24.739Z,19.84
2017-05-28T06:00:52.339Z,19.18
2017-05-28T06:03:19.881Z,19.77
2017-05-28T06:05:47.658Z,18.71
2017-05-28T06:08:15.258Z,18.64
2017-05-28T06:10:42.812Z,19.04
2017-05-28T06:13:10.391Z,19.51
2017-05-28T06:15:37.979Z,19.75
2017-05-28T06:18:05.770Z,19.94
2017-05-28T06:20:33.346Z,20.09
2017-05-28T06:23:02.045Z,18.34
2017-05-28T06:25:29.836Z,18.40
2017-05-28T06:27:57.387Z,19.00
2017-05-28T06:30:24.962Z,18.63
2017-05-28T06:32:52.494Z,18.71
2017-05-28T06:35:20.867Z,18.71
2017-05-28T06:37:48.451Z,19.12
2017-05-28T06:40:16.006Z,19.89
2017-05-28T06:42:43.554Z,19.57
2017-05-28T06:45:11.146Z,19.50
2017-05-28T06:47:38.947Z,19.76
2017-05-28T06:50:06.492Z,20.23
2017-05-28T06:52:34.277Z,20.35
2017-05-28T06:55:01.999Z,20.57
2017-05-28T06:57:29.779Z,20.39
2017-05-28T06:59:57.461Z,20.19
2017-05-28T07:02:25.113Z,19.32
2017-05-28T07:04:53.011Z,19.68
2017-05-28T07:07:20.558Z,20.29
2017-05-28T07:09:48.175Z,20.57
2017-05-28T07:12:15.749Z,20.65
2017-05-28T07:14:43.601Z,20.91
2017-05-28T07:17:11.235Z,20.84
2017-05-28T07:19:38.840Z,20.93
2017-05-28T07:22:06.406Z,20.95
2017-05-28T07:24:34.097Z,20.96
2017-05-28T07:27:02.428Z,20.79
2017-05-28T07:29:29.974Z,20.28
2017-05-28T07:31:57.590Z,19.01
2017-05-28T07:34:25.130Z,19.04
2017-05-28T07:36:52.698Z,19.33
2017-05-28T07:39:20.293Z,20.22
2017-05-28T07:41:47.838Z,19.26
2017-05-28T07:44:15.389Z,20.46
2017-05-28T07:46:43.572Z,20.17
2017-05-28T07:49:11.196Z,19.89
2017-05-28T07:51:38.987Z,19.13
2017-05-28T07:54:06.571Z,17.95
2017-05-28T07:56:34.368Z,18.51
2017-05-28T07:59:02.106Z,18.43
2017-05-28T08:01:29.686Z,17.88
2017-05-28T08:03:57.230Z,18.09
2017-05-28T08:06:25.001Z,18.17
2017-05-28T08:08:52.594Z,19.16
2017-05-28T08:11:20.160Z,19.34
2017-05-28T08:13:47.949Z,19.40
2017-05-28T08:16:15.868Z,18.84
2017-05-28T08:18:43.520Z,19.26
2017-05-28T08:21:11.971Z,18.80
2017-05-28T08:23:39.714Z,19.71
2017-05-28T08:26:07.280Z,20.35
2017-05-28T08:28:34.859Z,20.01
2017-05-28T08:31:02.470Z,20.41
2017-05-28T08:33:30.024Z,20.00
2017-05-28T08:35:58.671Z,19.99
2017-05-28T08:38:26.284Z,19.14
2017-05-28T08:40:53.868Z,19.78
2017-05-28T08:43:21.442Z,19.80
2017-05-28T08:45:49.039Z,20.10
2017-05-28T08:48:16.582Z,20.41
2017-05-28T08:50:44.445Z,20.95
2017-05-28T08:53:12.083Z,21.15
2017-05-28T08:55:39.651Z,21.02
2017-05-28T08:58:07.217Z,20.87
2017-05-28T09:00:34.822Z,20.86
2017-05-28T09:03:02.647Z,20.83
2017-05-28T09:05:30.200Z,20.46
2017-05-28T09:07:57.802Z,20.38
2017-05-28T09:10:25.362Z,20.52
2017-05-28T09:12:52.904Z,20.47
2017-05-28T09:15:20.515Z,20.54
2017-05-28T09:17:48.087Z,20.69
2017-05-28T09:20:15.627Z,20.96
2017-05-28T09:22:43.203Z,21.13
2017-05-28T09:25:11.045Z,21.27
2017-05-28T09:27:38.597Z,20.01
2017-05-28T09:30:55.434Z,21.21
2017-05-28T09:33:23.054Z,20.78
2017-05-28T09:35:50.668Z,21.32
2017-05-28T09:38:18.267Z,21.57
2017-05-28T09:40:45.885Z,21.15
2017-05-28T09:43:13.442Z,21.68
2017-05-28T09:45:41.004Z,21.49
2017-05-28T09:48:08.598Z,21.04
2017-05-28T09:50:36.163Z,20.63
2017-05-28T09:53:03.941Z,21.31
2017-05-28T09:55:31.603Z,21.50
2017-05-28T09:57:59.191Z,22.62
2017-05-28T10:01:01.683Z,22.34
2017-05-28T10:03:29.465Z,22.85
2017-05-28T10:05:57.021Z,22.99
2017-05-28T10:08:24.626Z,22.76
2017-05-28T10:10:52.170Z,22.21
2017-05-28T10:13:19.776Z,22.17
2017-05-28T10:15:47.478Z,22.16
2017-05-28T10:18:15.039Z,22.08
2017-05-28T10:20:42.890Z,22.54
2017-05-28T10:23:10.498Z,23.06
2017-05-28T10:25:38.083Z,23.38
2017-05-28T10:28:05.698Z,24.02
2017-05-28T10:30:33.633Z,23.33
2017-05-28T10:33:01.989Z,23.26
2017-05-28T10:35:29.838Z,23.62
2017-05-28T10:37:57.511Z,23.53
2017-05-28T10:40:25.211Z,22.51
2017-05-28T10:42:53.004Z,23.17
2017-05-28T10:45:20.735Z,23.47
2017-05-28T10:47:48.622Z,22.69
2017-05-28T10:50:16.167Z,22.98
2017-05-28T10:52:43.757Z,23.56
2017-05-28T10:55:11.306Z,24.48
2017-05-28T10:57:39.162Z,24.76
2017-05-28T11:00:08.260Z,24.36
2017-05-28T11:02:35.804Z,24.28
2017-05-28T11:05:03.681Z,24.92
2017-05-28T11:07:31.254Z,24.95
2017-05-28T11:09:58.792Z,23.61
2017-05-28T11:12:26.351Z,23.07
2017-05-28T11:14:53.918Z,23.37
2017-05-28T11:17:21.793Z,23.83
2017-05-28T11:19:49.586Z,24.13
2017-05-28T11:22:17.667Z,24.00
2017-05-28T11:24:45.214Z,24.36
2017-05-28T11:27:12.784Z,25.02
2017-05-28T11:29:41.203Z,25.08
2017-05-28T11:32:08.798Z,24.84
2017-05-28T11:34:36.647Z,25.03
2017-05-28T11:37:04.252Z,23.86
2017-05-28T11:39:31.834Z,23.87
2017-05-28T11:41:59.415Z,23.83
2017-05-28T11:44:26.963Z,22.81
2017-05-28T11:46:54.549Z,22.85
2017-05-28T11:49:22.324Z,21.79
2017-05-28T11:51:50.103Z,23.54
2017-05-28T11:54:17.705Z,24.10
2017-05-28T11:56:45.311Z,24.70
2017-05-28T11:59:12.850Z,25.08
2017-05-28T12:01:40.429Z,24.90
2017-05-28T12:04:07.978Z,24.76
2017-05-28T12:06:35.535Z,24.83
2017-05-28T12:09:03.129Z,24.07
2017-05-28T12:11:30.976Z,24.59
2017-05-28T12:13:58.544Z,24.85
2017-05-28T12:16:26.122Z,25.02
2017-05-28T12:18:53.669Z,24.21
2017-05-28T12:21:21.524Z,24.28
2017-05-28T12:23:49.103Z,24.93
2017-05-28T12:26:16.647Z,25.11
2017-05-28T12:28:44.945Z,25.49
2017-05-28T12:31:12.532Z,24.73
2017-05-28T12:33:40.103Z,24.97
2017-05-28T12:36:07.648Z,25.14
2017-05-28T12:38:35.235Z,24.79
2017-05-28T12:41:02.791Z,24.57
2017-05-28T12:43:30.390Z,24.69
2017-05-28T12:45:57.998Z,24.74
2017-05-28T12:48:25.566Z,24.27
2017-05-28T12:50:53.474Z,24.36
2017-05-28T12:53:21.121Z,23.01
2017-05-28T12:55:48.989Z,23.46
2017-05-28T12:58:16.762Z,23.40
2017-05-28T13:00:44.435Z,22.56
2017-05-28T13:03:12.013Z,23.08
2017-05-28T13:05:39.779Z,22.99
2017-05-28T13:08:07.370Z,22.73
2017-05-28T13:10:34.923Z,23.15
2017-05-28T13:13:02.826Z,23.07
2017-05-28T13:15:30.984Z,23.61
2017-05-28T13:17:58.553Z,23.45
2017-05-28T13:20:26.170Z,23.20
2017-05-28T13:22:53.791Z,23.90
2017-05-28T13:25:21.338Z,23.95
2017-05-28T13:27:48.891Z,23.85
2017-05-28T13:30:16.971Z,22.46
2017-05-28T13:32:44.761Z,22.74
2017-05-28T13:35:12.310Z,22.36
2017-05-28T13:37:40.117Z,22.99
2017-05-28T13:40:07.669Z,23.20
2017-05-28T13:42:35.225Z,22.83
2017-05-28T13:45:02.824Z,23.39
2017-05-28T13:47:30.362Z,23.43
2017-05-28T13:49:57.918Z,23.38
2017-05-28T13:52:25.529Z,23.51
2017-05-28T13:54:53.078Z,23.23
2017-05-28T13:57:20.957Z,23.43
2017-05-28T13:59:48.539Z,22.93
2017-05-28T14:02:16.158Z,22.90
2017-05-28T14:04:43.697Z,23.07
2017-05-28T14:07:11.246Z,22.73
2017-05-28T14:09:38.871Z,22.83
2017-05-28T14:12:07.261Z,22.80
2017-05-28T14:14:34.913Z,21.82
2017-05-28T14:17:02.543Z,21.72
2017-05-28T14:19:31.283Z,22.27
2017-05-28T14:21:59.003Z,22.03
2017-05-28T14:24:26.622Z,21.57
2017-05-28T14:26:54.174Z,21.29
2017-05-28T14:29:21.752Z,21.53
2017-05-28T14:31:49.327Z,20.72
2017-05-28T14:34:16.870Z,21.13
2017-05-28T14:36:44.420Z,21.12
2017-05-28T14:39:12.013Z,21.66
2017-05-28T14:41:39.576Z,21.75
2017-05-28T14:44:07.133Z,21.87
2017-05-28T14:46:34.763Z,21.88
2017-05-28T14:49:02.675Z,22.13
2017-05-28T14:51:30.260Z,22.39
2017-05-28T14:53:57.869Z,22.03
2017-05-28T14:56:25.764Z,22.17
2017-05-28T14:58:53.322Z,22.18
2017-05-28T15:01:21.010Z,22.09
2017-05-28T15:03:50.143Z,21.89
2017-05-28T15:06:18.782Z,21.40
2017-05-28T15:08:46.414Z,21.65
2017-05-28T15:11:13.961Z,21.98
2017-05-28T15:13:41.536Z,21.90
2017-05-28T15:16:09.131Z,21.82
2017-05-28T15:18:37.789Z,21.70
2017-05-28T15:21:05.662Z,21.57
2017-05-28T15:23:33.266Z,21.38
2017-05-28T15:26:00.835Z,21.35
2017-05-28T15:28:28.415Z,21.48
2017-05-28T15:30:55.994Z,21.52
2017-05-28T15:33:24.474Z,21.64
2017-05-28T15:35:52.022Z,21.40
2017-05-28T15:38:20.517Z,21.28
2017-05-28T15:40:48.067Z,21.55
2017-05-28T15:43:15.622Z,21.89
2017-05-28T15:45:43.230Z,21.98
2017-05-28T15:48:10.786Z,21.98
2017-05-28T15:50:38.417Z,22.17
2017-05-28T15:53:06.068Z,21.04
2017-05-28T15:55:33.742Z,20.95
2017-05-28T15:58:01.471Z,21.06
2017-05-28T16:00:29.179Z,21.04
2017-05-28T16:02:56.958Z,21.34
2017-05-28T16:05:25.252Z,21.82
2017-05-28T16:07:52.845Z,21.89
2017-05-28T16:10:20.394Z,21.61
2017-05-28T16:12:48.308Z,21.55
2017-05-28T16:15:15.938Z,21.28
2017-05-28T16:17:43.554Z,21.63
2017-05-28T16:20:11.770Z,20.96
2017-05-28T16:22:39.623Z,20.37
2017-05-28T16:25:07.198Z,20.60
2017-05-28T16:27:34.820Z,21.04
2017-05-28T16:30:02.621Z,21.34
2017-05-28T16:32:30.339Z,21.02
2017-05-28T16:34:58.144Z,20.86
2017-05-28T16:37:25.709Z,20.70
2017-05-28T16:39:53.474Z,20.90
2017-05-28T16:42:21.098Z,21.20
2017-05-28T16:44:48.666Z,21.23
2017-05-28T16:47:16.295Z,20.98
2017-05-28T16:49:44.368Z,21.41
2017-05-28T16:52:12.341Z,21.41
2017-05-28T16:54:40.602Z,21.36
2017-05-28T16:57:08.544Z,21.38
2017-05-28T16:59:36.141Z,21.39
2017-05-28T17:02:04.042Z,21.27
2017-05-28T17:04:31.896Z,21.03
2017-05-28T17:06:59.781Z,20.13
2017-05-28T17:09:27.402Z,19.97
2017-05-28T17:11:56.186Z,19.24
2017-05-28T17:14:23.786Z,18.95
2017-05-28T17:16:52.941Z,18.89
2017-05-28T17:19:20.495Z,19.19
2017-05-28T17:21:48.331Z,19.25
2017-05-28T17:24:15.942Z,20.05
2017-05-28T17:26:43.799Z,20.50
2017-05-28T17:29:11.370Z,20.46
2017-05-28T17:31:39.306Z,20.22
2017-05-28T17:34:06.855Z,20.43
2017-05-28T17:36:34.412Z,20.59
2017-05-28T17:39:02.009Z,20.71
2017-05-28T17:41:29.558Z,20.60
2017-05-28T17:43:57.124Z,20.54
2017-05-28T17:46:24.736Z,20.67
2017-05-28T17:48:52.302Z,20.41
2017-05-28T17:51:19.990Z,20.46
2017-05-28T17:53:47.651Z,20.21
2017-05-28T17:56:15.494Z,20.10
2017-05-28T17:58:43.341Z,20.23
2017-05-28T18:01:10.929Z,20.34
2017-05-28T18:03:38.493Z,20.12
2017-05-28T18:06:06.258Z,20.19
2017-05-28T18:08:33.877Z,20.33
2017-05-28T18:11:01.453Z,20.24
2017-05-28T18:13:29.924Z,20.13
2017-05-28T18:15:57.550Z,20.16
2017-05-28T18:18:25.341Z,20.00
2017-05-28T18:20:53.552Z,19.86
2017-05-28T18:23:21.187Z,19.89
2017-05-28T18:25:48.774Z,19.88
2017-05-28T18:28:16.712Z,19.81
2017-05-28T18:30:46.178Z,19.88
2017-05-28T18:33:13.734Z,19.93
2017-05-28T18:35:43.159Z,20.11
2017-05-28T18:38:11.922Z,19.91
2017-05-28T18:40:39.467Z,19.91
2017-05-28T18:43:07.100Z,19.74
2017-05-28T18:45:34.684Z,20.04
2017-05-28T18:48:02.602Z,20.14
2017-05-28T18:50:30.179Z,19.87
2017-05-28T18:52:58.566Z,20.03
2017-05-28T18:55:26.161Z,19.88
2017-05-28T18:57:53.856Z,19.32
2017-05-28T19:00:21.585Z,19.79
2017-05-28T19:02:49.140Z,19.93
2017-05-28T19:05:16.692Z,19.49
2017-05-28T19:07:44.415Z,19.10
2017-05-28T19:10:11.991Z,19.54
2017-05-28T19:12:39.553Z,19.39
2017-05-28T19:15:07.134Z,18.90
2017-05-28T19:17:34.958Z,18.81
2017-05-28T19:20:02.768Z,19.40
2017-05-28T19:22:30.367Z,19.47
2017-05-28T19:24:57.919Z,19.53
2017-05-28T19:27:25.713Z,19.62
2017-05-28T19:29:53.336Z,19.16
2017-05-28T19:32:21.306Z,19.35
2017-05-28T19:34:48.868Z,19.53
2017-05-28T19:37:16.751Z,19.64
2017-05-28T19:39:44.350Z,19.65
2017-05-28T19:42:12.551Z,19.68
2017-05-28T19:44:40.353Z,19.65
2017-05-28T19:47:07.956Z,19.59
2017-05-28T19:49:35.503Z,19.55
2017-05-28T19:52:03.318Z,19.59
2017-05-28T19:54:30.898Z,19.58
2017-05-28T19:56:58.766Z,19.54
2017-05-28T19:59:26.307Z,19.51
2017-05-28T20:01:53.922Z,19.49
2017-05-28T20:04:21.737Z,19.35
2017-05-28T20:06:49.294Z,19.31
2017-05-28T20:09:16.871Z,19.20
2017-05-28T20:11:44.435Z,19.11
2017-05-28T20:14:11.974Z,18.94
2017-05-28T20:16:40.451Z,19.03
2017-05-28T20:19:07.997Z,19.03
2017-05-28T20:21:35.555Z,19.04
2017-05-28T20:24:03.206Z,19.01
2017-05-28T20:26:30.746Z,18.93
2017-05-28T20:28:58.299Z,18.94
2017-05-28T20:31:25.905Z,18.48
2017-05-28T20:33:53.466Z,18.69
2017-05-28T20:36:21.034Z,18.62
2017-05-28T20:38:48.634Z,18.64
2017-05-28T20:41:16.194Z,18.65
2017-05-28T20:43:43.746Z,18.62
2017-05-28T20:46:11.330Z,18.61
2017-05-28T20:48:39.111Z,18.57
2017-05-28T20:51:06.646Z,18.54
2017-05-28T20:53:34.257Z,18.59
2017-05-28T20:56:04.010Z,18.57
2017-05-28T20:58:31.811Z,18.44
2017-05-28T21:01:01.591Z,18.50
2017-05-28T21:03:31.471Z,18.43
2017-05-28T21:06:00.671Z,18.31
2017-05-28T21:08:32.387Z,18.36
2017-05-28T21:11:08.250Z,18.25
2017-05-28T21:13:40.764Z,18.11
2017-05-28T21:16:08.575Z,18.15
2017-05-28T21:18:36.345Z,18.23
2017-05-28T21:21:04.262Z,18.19
2017-05-28T21:23:31.848Z,18.21
2017-05-28T21:25:59.634Z,18.18
2017-05-28T21:28:27.191Z,18.12
2017-05-28T21:30:54.773Z,18.11
2017-05-28T21:33:22.306Z,18.16
2017-05-28T21:35:49.879Z,18.11
2017-05-28T21:38:18.299Z,18.16
2017-05-28T21:40:45.851Z,18.16
2017-05-28T21:43:13.736Z,18.01
2017-05-28T21:45:41.336Z,18.06
2017-05-28T21:48:08.886Z,17.98
2017-05-28T21:50:36.451Z,17.90
2017-05-28T21:53:04.083Z,18.14
2017-05-28T21:55:31.702Z,17.94
2017-05-28T21:57:59.491Z,18.02
2017-05-28T22:00:27.245Z,17.94
2017-05-28T22:02:54.803Z,18.05
2017-05-28T22:05:22.355Z,18.11
2017-05-28T22:07:49.960Z,18.09
2017-05-28T22:10:17.511Z,18.11
2017-05-28T22:12:45.297Z,18.13
2017-05-28T22:15:12.912Z,18.10
2017-05-28T22:17:40.494Z,18.05
2017-05-28T22:23:28.686Z,17.75
2017-05-28T22:26:08.965Z,17.50
2017-05-28T22:28:36.541Z,17.62
2017-05-28T22:31:04.134Z,17.65
2017-05-28T22:33:31.679Z,17.62
2017-05-28T22:35:59.254Z,17.48
2017-05-28T22:38:26.843Z,17.46
2017-05-28T22:40:54.398Z,17.55
2017-05-28T22:43:21.949Z,17.56
2017-05-28T22:45:49.563Z,17.46
2017-05-28T22:48:17.114Z,17.50
2017-05-28T22:50:44.706Z,17.46
2017-05-28T22:53:12.307Z,17.12
2017-05-28T22:55:39.919Z,17.23
2017-05-28T22:58:07.487Z,17.23
2017-05-28T23:00:35.276Z,17.30
2017-05-28T23:03:02.825Z,17.33
2017-05-28T23:05:30.637Z,17.46
2017-05-28T23:07:58.221Z,17.48
2017-05-28T23:10:25.770Z,17.43
2017-05-28T23:12:53.339Z,17.54
2017-05-28T23:15:20.995Z,17.67
2017-05-28T23:17:48.544Z,17.59
2017-05-28T23:20:16.091Z,16.98
2017-05-28T23:22:43.681Z,17.25
2017-05-28T23:25:11.270Z,17.42
2017-05-28T23:27:38.815Z,17.51
2017-05-28T23:30:06.824Z,17.62
2017-05-28T23:32:34.418Z,17.34
2017-05-28T23:35:01.974Z,17.45
2017-05-28T23:37:29.569Z,17.41
2017-05-28T23:39:57.115Z,17.56
2017-05-28T23:42:24.657Z,17.53
2017-05-28T23:44:52.571Z,17.41
2017-05-28T23:47:20.449Z,17.49
2017-05-28T23:49:48.012Z,17.57
2017-05-28T23:52:15.585Z,17.34
2017-05-28T23:54:43.136Z,17.49
2017-05-28T23:57:10.695Z,17.60
2017-05-28T23:59:38.307Z,17.50
